createdAt,value
2018-03-27T00:01:45.195Z,30.03
2018-03-27T00:04:14.996Z,30.90
2018-03-27T00:06:45.202Z,29.80
2018-03-27T00:09:15.146Z,34.40
2018-03-27T00:11:45.200Z,34.73
2018-03-27T00:14:14.956Z,36.07
2018-03-27T00:16:45.048Z,33.13
2018-03-27T00:19:15.508Z,36.27
2018-03-27T00:21:45.219Z,33.97
2018-03-27T00:24:14.968Z,31.10
2018-03-27T00:26:57.945Z,36.23
2018-03-27T00:29:44.706Z,34.57
2018-03-27T00:32:31.199Z,33.53
2018-03-27T00:35:17.748Z,35.07
2018-03-27T00:38:04.396Z,39.50
2018-03-27T00:40:43.454Z,35.47
2018-03-27T00:43:13.597Z,36.70
2018-03-27T00:45:43.400Z,39.03
2018-03-27T00:48:14.076Z,36.00
2018-03-27T00:50:43.897Z,36.10
2018-03-27T00:53:13.754Z,40.07
2018-03-27T00:55:43.746Z,41.07
2018-03-27T00:58:13.556Z,41.70
2018-03-27T01:00:43.708Z,38.17
2018-03-27T01:03:14.372Z,38.57
2018-03-27T01:05:44.105Z,38.73
2018-03-27T01:08:13.837Z,36.10
2018-03-27T01:10:43.565Z,39.73
2018-03-27T01:13:13.377Z,37.57
2018-03-27T01:15:43.302Z,40.27
2018-03-27T01:18:14.083Z,36.97
2018-03-27T01:20:44.336Z,37.07
2018-03-27T01:23:14.116Z,33.93
2018-03-27T01:25:43.948Z,35.00
2018-03-27T01:28:13.892Z,37.47
2018-03-27T01:30:43.669Z,35.60
2018-03-27T01:33:13.943Z,34.37
2018-03-27T01:35:44.482Z,33.93
2018-03-27T01:38:14.991Z,33.07
2018-03-27T01:40:44.836Z,35.27
2018-03-27T01:43:14.760Z,33.60
2018-03-27T01:45:44.563Z,35.50
2018-03-27T01:48:14.320Z,34.63
2018-03-27T01:50:44.136Z,34.33
2018-03-27T01:53:14.041Z,32.33
2018-03-27T01:55:43.841Z,33.87
2018-03-27T01:58:13.839Z,31.87
2018-03-27T02:00:43.627Z,33.00
2018-03-27T02:03:14.115Z,31.90
2018-03-27T02:05:43.848Z,32.40
2018-03-27T02:08:13.743Z,32.30
2018-03-27T02:10:42.748Z,36.53
2018-03-27T02:13:18.472Z,34.67
2018-03-27T02:15:53.307Z,33.33
2018-03-27T02:18:28.387Z,34.47
2018-03-27T02:21:04.060Z,34.60
2018-03-27T02:23:35.097Z,37.57
2018-03-27T02:26:05.697Z,33.80
2018-03-27T02:28:35.552Z,32.10
2018-03-27T02:31:05.559Z,33.10
2018-03-27T02:33:36.149Z,31.27
2018-03-27T02:36:06.019Z,31.47
2018-03-27T02:38:35.732Z,34.60
2018-03-27T02:41:05.457Z,33.03
2018-03-27T02:43:35.821Z,34.10
2018-03-27T02:46:05.668Z,34.97
2018-03-27T02:48:36.112Z,32.43
2018-03-27T02:51:05.915Z,31.87
2018-03-27T02:53:35.745Z,29.50
2018-03-27T02:56:05.805Z,33.27
2018-03-27T02:58:36.045Z,34.27
2018-03-27T03:01:07.027Z,31.77
2018-03-27T03:03:36.834Z,33.20
2018-03-27T03:06:06.693Z,30.50
2018-03-27T03:08:36.543Z,30.50
2018-03-27T03:11:06.256Z,30.87
2018-03-27T03:13:36.017Z,28.13
2018-03-27T03:16:05.716Z,31.80
2018-03-27T03:18:35.656Z,31.63
2018-03-27T03:21:05.744Z,29.80
2018-03-27T03:23:35.524Z,34.43
2018-03-27T03:26:05.473Z,30.67
2018-03-27T03:28:35.293Z,36.70
2018-03-27T03:31:05.032Z,39.77
2018-03-27T03:33:35.492Z,32.20
2018-03-27T03:36:05.278Z,29.80
2018-03-27T03:38:35.860Z,30.63
2018-03-27T03:41:05.977Z,30.87
2018-03-27T03:43:35.841Z,30.23
2018-03-27T03:46:06.421Z,30.37
2018-03-27T03:48:36.488Z,35.10
2018-03-27T03:51:06.604Z,28.07
2018-03-27T03:53:37.189Z,30.30
2018-03-27T03:56:06.972Z,29.57
2018-03-27T03:58:38.217Z,31.10
2018-03-27T04:01:08.987Z,30.00
2018-03-27T04:03:38.744Z,29.87
2018-03-27T04:06:08.512Z,30.43
2018-03-27T04:08:38.646Z,29.97
2018-03-27T04:11:08.539Z,29.00
2018-03-27T04:13:38.368Z,29.83
2018-03-27T04:16:08.165Z,30.20
2018-03-27T04:18:37.998Z,31.60
2018-03-27T04:21:07.729Z,29.73
2018-03-27T04:23:38.432Z,26.70
2018-03-27T04:26:08.666Z,28.87
2018-03-27T04:28:38.412Z,26.83
2018-03-27T04:31:08.279Z,30.57
2018-03-27T04:33:38.365Z,29.33
2018-03-27T04:36:09.171Z,27.40
2018-03-27T04:38:38.899Z,31.00
2018-03-27T04:41:09.455Z,27.63
2018-03-27T04:43:39.131Z,33.47
2018-03-27T04:46:09.709Z,31.10
2018-03-27T04:48:39.470Z,31.03
2018-03-27T04:51:09.538Z,31.27
2018-03-27T04:53:39.313Z,32.77
2018-03-27T04:56:09.912Z,27.47
2018-03-27T04:58:39.722Z,32.10
2018-03-27T05:01:10.767Z,29.30
2018-03-27T05:03:41.048Z,28.23
2018-03-27T05:21:17.415Z,31.37
2018-03-27T05:23:48.026Z,31.53
2018-03-27T05:26:18.990Z,33.23
2018-03-27T05:28:48.719Z,31.20
2018-03-27T05:31:19.410Z,29.57
2018-03-27T05:33:49.202Z,33.57
2018-03-27T05:36:19.172Z,34.07
2018-03-27T05:38:48.875Z,31.73
2018-03-27T05:41:18.640Z,30.77
2018-03-27T05:43:48.778Z,30.17
2018-03-27T05:46:19.505Z,29.50
2018-03-27T05:48:49.764Z,32.53
2018-03-27T05:51:20.080Z,31.65
2018-03-27T05:54:31.812Z,30.50
2018-03-27T05:57:01.753Z,30.87
2018-03-27T05:59:31.502Z,26.73
2018-03-27T06:02:01.325Z,29.20
2018-03-27T06:04:32.073Z,28.17
2018-03-27T06:07:01.795Z,30.70
2018-03-27T06:09:31.688Z,30.70
2018-03-27T06:12:02.276Z,28.77
2018-03-27T06:14:32.411Z,35.80
2018-03-27T06:17:02.217Z,28.13
2018-03-27T06:19:33.038Z,31.13
2018-03-27T06:22:02.826Z,28.07
2018-03-27T06:24:32.628Z,31.57
2018-03-27T06:27:02.355Z,29.83
2018-03-27T06:29:32.111Z,30.83
2018-03-27T06:32:02.980Z,31.17
2018-03-27T06:34:32.897Z,30.03
2018-03-27T06:37:02.604Z,35.83
2018-03-27T06:39:32.612Z,33.03
2018-03-27T06:42:03.391Z,37.97
2018-03-27T06:44:33.537Z,36.20
2018-03-27T06:47:03.720Z,33.93
2018-03-27T06:49:33.489Z,33.00
2018-03-27T06:52:05.385Z,30.53
2018-03-27T06:54:35.415Z,32.07
2018-03-27T06:57:05.208Z,32.03
2018-03-27T06:59:35.088Z,34.80
2018-03-27T07:02:04.948Z,27.00
2018-03-27T07:04:34.716Z,31.00
2018-03-27T07:07:04.448Z,25.67
2018-03-27T07:09:35.105Z,28.00
2018-03-27T07:12:05.220Z,28.30
2018-03-27T07:14:35.290Z,35.17
2018-03-27T07:17:04.999Z,32.00
2018-03-27T07:19:34.789Z,29.13
2018-03-27T07:22:04.692Z,29.83
2018-03-27T07:24:34.577Z,26.70
2018-03-27T07:27:04.362Z,33.10
2018-03-27T07:29:34.159Z,33.10
2018-03-27T07:32:04.081Z,34.33
2018-03-27T07:34:34.617Z,33.90
2018-03-27T07:37:04.711Z,30.97
2018-03-27T07:39:34.612Z,34.23
2018-03-27T07:42:04.500Z,31.77
2018-03-27T07:44:34.462Z,35.00
2018-03-27T07:47:04.233Z,28.57
2018-03-27T07:49:33.993Z,30.10
2018-03-27T07:52:03.972Z,31.77
2018-03-27T07:54:33.784Z,35.03
2018-03-27T07:57:03.662Z,31.13
2018-03-27T07:59:34.249Z,31.50
2018-03-27T08:02:03.929Z,32.20
2018-03-27T08:04:33.807Z,29.47
2018-03-27T08:07:04.472Z,28.80
2018-03-27T08:09:34.751Z,27.40
2018-03-27T08:12:04.641Z,28.87
2018-03-27T08:14:34.694Z,26.67
2018-03-27T08:17:04.417Z,31.27
2018-03-27T08:19:34.988Z,29.53
2018-03-27T08:22:04.956Z,23.83
2018-03-27T08:24:36.464Z,28.57
2018-03-27T08:27:06.348Z,27.13
2018-03-27T08:29:36.364Z,36.27
2018-03-27T08:32:06.847Z,29.67
2018-03-27T08:34:36.721Z,31.23
2018-03-27T08:37:06.724Z,25.30
2018-03-27T08:39:36.873Z,31.53
2018-03-27T08:42:06.729Z,29.00
2018-03-27T08:44:36.695Z,23.43
2018-03-27T08:47:06.694Z,24.90
2018-03-27T08:49:37.316Z,24.37
2018-03-27T08:52:07.799Z,20.27
2018-03-27T08:54:37.580Z,28.00
2018-03-27T08:57:07.532Z,22.80
2018-03-27T08:59:37.472Z,28.43
2018-03-27T09:02:08.250Z,25.73
2018-03-27T09:04:38.220Z,23.50
2018-03-27T09:07:08.089Z,19.67
2018-03-27T09:09:38.213Z,17.43
2018-03-27T09:12:08.071Z,18.00
2018-03-27T09:14:38.658Z,18.33
2018-03-27T09:17:08.395Z,18.93
2018-03-27T09:19:38.317Z,16.00
2018-03-27T09:22:08.099Z,18.43
2018-03-27T09:24:38.594Z,18.57
2018-03-27T09:27:08.393Z,20.13
2018-03-27T09:29:38.873Z,18.40
2018-03-27T09:32:10.483Z,15.13
2018-03-27T09:34:41.052Z,19.60
2018-03-27T09:37:10.888Z,15.53
2018-03-27T09:39:40.714Z,18.20
2018-03-27T09:42:11.830Z,13.87
2018-03-27T09:44:42.424Z,14.53
2018-03-27T09:47:12.402Z,19.90
2018-03-27T09:49:42.178Z,16.47
2018-03-27T09:52:12.114Z,14.90
2018-03-27T09:54:42.073Z,14.03
2018-03-27T09:57:12.646Z,16.50
2018-03-27T09:59:42.634Z,15.83
2018-03-27T10:02:12.433Z,15.80
2018-03-27T10:04:42.206Z,12.50
2018-03-27T10:07:11.882Z,12.80
2018-03-27T10:09:41.764Z,15.40
2018-03-27T10:12:12.209Z,13.83
2018-03-27T10:14:42.238Z,16.37
2018-03-27T10:17:11.988Z,14.87
2018-03-27T10:19:41.897Z,10.80
2018-03-27T10:22:11.651Z,13.00
2018-03-27T10:24:41.438Z,11.60
2018-03-27T10:27:11.263Z,13.80
2018-03-27T10:29:41.904Z,12.67
2018-03-27T10:32:12.539Z,13.30
2018-03-27T10:34:43.134Z,13.83
2018-03-27T10:37:12.908Z,12.53
2018-03-27T10:39:42.704Z,12.80
2018-03-27T10:42:12.557Z,11.80
2018-03-27T10:44:42.356Z,15.40
2018-03-27T10:47:12.281Z,14.27
2018-03-27T10:49:42.025Z,11.97
2018-03-27T10:52:11.995Z,12.90
2018-03-27T10:54:42.166Z,12.10
2018-03-27T10:57:11.928Z,13.03
2018-03-27T10:59:41.602Z,13.20
2018-03-27T11:02:12.381Z,12.27
2018-03-27T11:04:42.201Z,12.07
2018-03-27T11:07:12.047Z,11.77
2018-03-27T11:09:42.088Z,13.93
2018-03-27T11:12:12.622Z,13.87
2018-03-27T11:14:42.628Z,11.10
2018-03-27T11:17:13.195Z,15.63
2018-03-27T11:19:43.269Z,12.97
2018-03-27T11:22:13.230Z,12.07
2018-03-27T11:24:42.974Z,10.17
2018-03-27T11:27:12.691Z,12.93
2018-03-27T11:29:43.299Z,10.90
2018-03-27T11:32:13.178Z,10.63
2018-03-27T11:34:43.272Z,12.57
2018-03-27T11:37:14.066Z,12.47
2018-03-27T11:39:43.874Z,13.57
2018-03-27T11:42:13.766Z,13.03
2018-03-27T11:44:43.660Z,14.30
2018-03-27T11:47:14.114Z,14.10
2018-03-27T11:49:43.896Z,18.20
2018-03-27T11:52:14.629Z,16.27
2018-03-27T11:54:45.260Z,17.80
2018-03-27T11:57:15.778Z,17.87
2018-03-27T11:59:45.607Z,17.70
2018-03-27T12:02:15.547Z,14.83
2018-03-27T12:04:45.587Z,18.20
2018-03-27T12:07:15.404Z,22.43
2018-03-27T12:09:45.234Z,16.37
2018-03-27T12:12:15.177Z,17.40
2018-03-27T12:14:45.908Z,16.33
2018-03-27T12:17:17.305Z,13.53
2018-03-27T12:19:47.042Z,13.43
2018-03-27T12:22:16.831Z,16.13
2018-03-27T12:24:46.806Z,15.17
2018-03-27T12:27:23.352Z,15.90
2018-03-27T12:29:59.824Z,18.37
2018-03-27T12:32:29.561Z,19.13
2018-03-27T12:35:00.485Z,19.13
2018-03-27T12:37:31.782Z,21.07
2018-03-27T12:40:03.140Z,15.57
2018-03-27T12:42:33.181Z,15.77
2018-03-27T12:45:02.988Z,15.27
2018-03-27T12:47:32.957Z,17.67
2018-03-27T12:50:02.754Z,18.47
2018-03-27T12:52:33.580Z,16.67
2018-03-27T12:55:04.166Z,17.77
2018-03-27T12:57:34.101Z,18.40
2018-03-27T13:00:04.369Z,18.37
2018-03-27T13:02:34.248Z,18.67
2018-03-27T13:05:04.207Z,17.07
2018-03-27T13:07:34.384Z,18.63
2018-03-27T13:10:04.304Z,18.07
2018-03-27T13:12:34.156Z,14.97
2018-03-27T13:15:03.899Z,17.37
2018-03-27T13:17:33.925Z,22.67
2018-03-27T13:20:03.691Z,26.60
2018-03-27T13:22:33.862Z,18.03
2018-03-27T13:25:03.940Z,18.77
2018-03-27T13:27:33.686Z,15.73
2018-03-27T13:30:03.840Z,15.63
2018-03-27T13:32:34.572Z,18.23
2018-03-27T13:35:05.540Z,15.77
2018-03-27T13:37:35.294Z,19.20
2018-03-27T13:40:05.352Z,20.93
2018-03-27T13:42:36.081Z,16.97
2018-03-27T13:45:06.137Z,18.00
2018-03-27T13:47:35.861Z,21.87
2018-03-27T13:50:05.922Z,17.37
2018-03-27T13:52:35.725Z,19.10
2018-03-27T13:55:06.271Z,18.07
2018-03-27T13:57:36.788Z,18.07
2018-03-27T14:00:08.749Z,18.00
2018-03-27T14:02:38.630Z,25.13
2018-03-27T14:05:08.511Z,16.43
2018-03-27T14:07:39.040Z,21.07
2018-03-27T14:10:09.201Z,18.53
2018-03-27T14:12:39.050Z,24.53
2018-03-27T14:15:08.840Z,23.03
2018-03-27T14:17:38.578Z,24.10
2018-03-27T14:20:09.441Z,20.77
2018-03-27T14:22:39.497Z,20.93
2018-03-27T14:25:09.372Z,20.23
2018-03-27T14:27:39.358Z,20.97
2018-03-27T14:30:10.288Z,21.20
2018-03-27T14:32:40.476Z,20.90
2018-03-27T14:35:10.318Z,20.40
2018-03-27T14:37:40.116Z,18.97
2018-03-27T14:40:09.965Z,24.23
2018-03-27T14:42:40.477Z,24.93
2018-03-27T14:45:10.528Z,28.73
2018-03-27T14:47:41.316Z,23.37
2018-03-27T14:50:11.528Z,22.40
2018-03-27T14:52:41.659Z,24.07
2018-03-27T14:55:11.548Z,24.50
2018-03-27T14:57:41.408Z,19.20
2018-03-27T15:00:11.347Z,23.40
2018-03-27T15:02:41.316Z,22.93
2018-03-27T15:05:11.089Z,20.63
2018-03-27T15:07:41.033Z,17.90
2018-03-27T15:10:10.886Z,26.73
2018-03-27T15:12:41.049Z,20.20
2018-03-27T15:15:10.965Z,23.40
2018-03-27T15:17:40.864Z,20.90
2018-03-27T15:20:10.613Z,18.37
2018-03-27T15:22:40.651Z,21.53
2018-03-27T15:25:11.386Z,22.93
2018-03-27T15:27:41.332Z,20.67
2018-03-27T15:30:11.206Z,24.83
2018-03-27T15:32:41.013Z,22.40
2018-03-27T15:35:11.178Z,21.93
2018-03-27T15:37:41.690Z,21.13
2018-03-27T15:40:11.802Z,21.73
2018-03-27T15:42:41.650Z,22.37
2018-03-27T15:45:11.457Z,23.03
2018-03-27T15:47:42.338Z,22.53
2018-03-27T15:50:12.097Z,26.17
2018-03-27T15:52:42.716Z,23.03
2018-03-27T15:55:13.471Z,22.57
2018-03-27T15:57:43.988Z,25.23
2018-03-27T16:00:14.668Z,24.50
2018-03-27T16:02:44.570Z,23.27
2018-03-27T16:05:14.376Z,25.60
2018-03-27T16:07:44.451Z,26.03
2018-03-27T16:10:14.314Z,25.13
2018-03-27T16:12:44.154Z,24.17
2018-03-27T16:15:13.954Z,29.73
2018-03-27T16:17:44.191Z,22.93
2018-03-27T16:20:13.941Z,26.37
2018-03-27T16:22:44.790Z,25.73
2018-03-27T16:25:15.308Z,23.10
2018-03-27T16:27:46.252Z,26.83
2018-03-27T16:30:16.776Z,24.47
2018-03-27T16:32:47.528Z,23.80
2018-03-27T16:35:18.213Z,23.93
2018-03-27T16:37:48.385Z,20.03
2018-03-27T16:40:19.226Z,20.50
2018-03-27T16:42:49.027Z,20.53
2018-03-27T16:45:19.657Z,16.23
2018-03-27T16:47:50.376Z,16.97
2018-03-27T16:50:20.292Z,15.80
2018-03-27T16:52:50.177Z,16.43
2018-03-27T16:55:20.584Z,15.60
2018-03-27T16:57:50.628Z,12.10
2018-03-27T17:00:20.473Z,12.57
2018-03-27T17:02:51.307Z,13.10
2018-03-27T17:05:21.828Z,12.33
2018-03-27T17:07:51.646Z,12.77
2018-03-27T17:10:22.488Z,11.97
2018-03-27T17:12:52.681Z,10.23
2018-03-27T17:15:29.291Z,10.00
2018-03-27T17:18:00.695Z,11.60
2018-03-27T17:20:30.857Z,9.27
2018-03-27T17:23:02.173Z,9.77
2018-03-27T17:25:32.082Z,8.00
2018-03-27T17:28:02.846Z,8.00
2018-03-27T17:30:33.646Z,8.30
2018-03-27T17:33:03.690Z,8.33
2018-03-27T17:35:33.404Z,7.30
2018-03-27T17:38:03.264Z,7.87
2018-03-27T17:40:33.390Z,6.70
2018-03-27T17:43:03.129Z,6.30
2018-03-27T17:45:33.241Z,7.70
2018-03-27T17:48:03.073Z,8.27
2018-03-27T17:50:33.445Z,8.60
2018-03-27T17:53:03.346Z,10.13
2018-03-27T17:55:33.822Z,12.07
2018-03-27T17:58:03.713Z,10.37
2018-03-27T18:00:33.659Z,8.73
2018-03-27T18:03:03.386Z,9.87
2018-03-27T18:05:34.088Z,10.07
2018-03-27T18:08:04.299Z,11.37
2018-03-27T18:10:34.024Z,9.03
2018-03-27T18:13:03.729Z,9.43
2018-03-27T18:15:33.578Z,9.50
2018-03-27T18:18:03.457Z,11.77
2018-03-27T18:20:33.274Z,11.20
2018-03-27T18:23:02.977Z,11.10
2018-03-27T18:25:32.818Z,8.37
2018-03-27T18:28:02.676Z,9.77
2018-03-27T18:30:32.381Z,12.97
2018-03-27T18:33:02.576Z,9.60
2018-03-27T18:35:32.400Z,11.70
2018-03-27T18:38:02.218Z,9.57
2018-03-27T18:40:32.812Z,11.60
2018-03-27T18:43:02.788Z,10.10
2018-03-27T18:45:33.206Z,10.20
2018-03-27T18:48:03.351Z,10.40
2018-03-27T18:50:33.266Z,11.27
2018-03-27T18:53:03.281Z,11.10
2018-03-27T18:55:39.685Z,11.40
2018-03-27T18:58:09.717Z,13.10
2018-03-27T19:00:39.525Z,12.13
2018-03-27T19:03:09.299Z,11.57
2018-03-27T19:05:39.149Z,15.13
2018-03-27T19:08:08.973Z,14.90
2018-03-27T19:10:41.029Z,15.80
2018-03-27T19:13:10.830Z,16.37
2018-03-27T19:15:40.681Z,16.87
2018-03-27T19:18:10.525Z,15.13
2018-03-27T19:20:40.237Z,15.80
2018-03-27T19:23:10.135Z,17.43
2018-03-27T19:25:40.253Z,17.27
2018-03-27T19:28:10.197Z,18.63
2018-03-27T19:30:40.276Z,17.13
2018-03-27T19:33:10.281Z,18.77
2018-03-27T19:35:40.889Z,18.40
2018-03-27T19:38:10.605Z,18.87
2018-03-27T19:40:40.468Z,20.00
2018-03-27T19:43:10.440Z,17.97
2018-03-27T19:45:40.306Z,19.33
2018-03-27T19:48:10.164Z,17.83
2018-03-27T19:50:41.517Z,21.07
2018-03-27T19:53:11.223Z,18.97
2018-03-27T19:55:40.986Z,19.20
2018-03-27T19:58:10.724Z,21.30
2018-03-27T20:00:40.557Z,18.90
2018-03-27T20:03:10.656Z,21.67
2018-03-27T20:05:40.501Z,21.77
2018-03-27T20:08:10.274Z,21.97
2018-03-27T20:10:40.114Z,23.70
2018-03-27T20:13:10.141Z,23.03
2018-03-27T20:15:41.689Z,19.73
2018-03-27T20:18:10.831Z,25.10
2018-03-27T20:20:40.678Z,24.30
2018-03-27T20:23:10.617Z,22.43
2018-03-27T20:25:42.080Z,23.80
2018-03-27T20:28:12.963Z,23.17
2018-03-27T20:30:42.848Z,23.37
2018-03-27T20:33:12.832Z,23.77
2018-03-27T20:35:42.676Z,22.23
2018-03-27T20:38:13.637Z,21.57
2018-03-27T20:40:43.715Z,21.90
2018-03-27T20:43:13.902Z,25.67
2018-03-27T20:45:44.099Z,24.90
2018-03-27T20:48:13.857Z,24.57
2018-03-27T20:50:43.683Z,23.30
2018-03-27T20:53:14.236Z,21.10
2018-03-27T20:55:44.976Z,20.87
2018-03-27T20:58:14.985Z,22.53
2018-03-27T21:00:45.500Z,22.97
2018-03-27T21:03:16.111Z,22.63
2018-03-27T21:05:45.891Z,24.77
2018-03-27T21:08:15.683Z,21.00
2018-03-27T21:10:45.500Z,20.97
2018-03-27T21:13:15.489Z,20.80
2018-03-27T21:15:46.106Z,21.90
2018-03-27T21:18:15.824Z,22.57
2018-03-27T21:20:46.414Z,21.33
2018-03-27T21:23:16.363Z,20.13
2018-03-27T21:25:46.260Z,26.37
2018-03-27T21:28:16.552Z,24.77
2018-03-27T21:30:46.498Z,22.37
2018-03-27T21:33:16.360Z,22.20
2018-03-27T21:35:46.929Z,26.63
2018-03-27T21:38:16.859Z,24.20
2018-03-27T21:40:47.865Z,26.23
2018-03-27T21:43:17.840Z,21.70
2018-03-27T21:45:47.656Z,26.43
2018-03-27T21:48:18.366Z,20.93
2018-03-27T21:50:48.590Z,21.43
2018-03-27T21:53:24.913Z,21.00
2018-03-27T21:55:54.940Z,22.93
2018-03-27T21:58:25.068Z,24.20
2018-03-27T22:00:55.116Z,23.77
2018-03-27T22:03:26.162Z,23.53
2018-03-27T22:05:56.216Z,20.93
2018-03-27T22:08:26.130Z,22.73
2018-03-27T22:10:56.687Z,24.50
2018-03-27T22:13:26.644Z,25.13
2018-03-27T22:15:56.372Z,24.00
2018-03-27T22:18:26.872Z,23.90
2018-03-27T22:20:56.801Z,25.73
2018-03-27T22:23:27.435Z,26.73
2018-03-27T22:25:57.338Z,25.23
2018-03-27T22:28:27.075Z,23.70
2018-03-27T22:30:57.719Z,26.70
2018-03-27T22:33:28.632Z,25.03
2018-03-27T22:35:58.525Z,27.07
2018-03-27T22:38:28.388Z,27.40
2018-03-27T22:40:58.237Z,24.40
2018-03-27T22:43:28.055Z,24.80
2018-03-27T22:45:57.874Z,27.17
2018-03-27T22:48:27.659Z,27.53
2018-03-27T22:50:57.640Z,24.67
2018-03-27T22:53:28.237Z,23.47
2018-03-27T22:55:57.984Z,24.80
2018-03-27T22:58:27.824Z,23.33
2018-03-27T23:00:57.523Z,24.00
2018-03-27T23:03:28.243Z,25.03
2018-03-27T23:05:59.164Z,27.77
2018-03-27T23:08:28.944Z,23.47
2018-03-27T23:10:58.720Z,25.50
2018-03-27T23:13:29.169Z,24.57
2018-03-27T23:15:59.056Z,26.20
2018-03-27T23:18:29.536Z,25.20
2018-03-27T23:20:59.376Z,27.70
2018-03-27T23:23:29.246Z,26.27
2018-03-27T23:25:59.191Z,24.03
2018-03-27T23:28:29.302Z,27.27
2018-03-27T23:30:59.104Z,29.27
2018-03-27T23:33:29.092Z,31.50
2018-03-27T23:35:58.816Z,31.30
2018-03-27T23:38:28.616Z,26.73
2018-03-27T23:40:58.378Z,35.27
2018-03-27T23:43:28.143Z,36.53
2018-03-27T23:45:58.832Z,35.20
2018-03-27T23:48:30.272Z,40.60
2018-03-27T23:51:00.255Z,37.40
2018-03-27T23:53:30.000Z,39.00
2018-03-27T23:56:00.153Z,36.37
2018-03-27T23:58:30.660Z,45.57
